sensor_id;sensor_type;location;lat;lon;timestamp;P1;durP1;ratioP1;P2;durP2;ratioP2
3052;SDS011;1536;51.098;6.414;2024-01-25T00:01:37;31.50;;;7.70;;
3052;SDS011;1536;51.098;6.414;2024-01-25T00:04:05;41.47;;;8.60;;
3052;SDS011;1536;51.098;6.414;2024-01-25T00:06:32;31.33;;;8.10;;
3052;SDS011;1536;51.098;6.414;2024-01-25T00:08:59;44.10;;;8.32;;
3052;SDS011;1536;51.098;6.414;2024-01-25T00:11:26;24.17;;;6.47;;
3052;SDS011;1536;51.098;6.414;2024-01-25T00:13:56;26.70;;;7.78;;
3052;SDS011;1536;51.098;6.414;2024-01-25T00:16:25;31.27;;;6.95;;
3052;SDS011;1536;51.098;6.414;2024-01-25T00:18:53;40.17;;;7.25;;
3052;SDS011;1536;51.098;6.414;2024-01-25T00:21:21;32.63;;;9.70;;
3052;SDS011;1536;51.098;6.414;2024-01-25T00:23:48;29.17;;;6.88;;
3052;SDS011;1536;51.098;6.414;2024-01-25T00:26:15;45.00;;;8.63;;
3052;SDS011;1536;51.098;6.414;2024-01-25T00:28:41;32.20;;;8.52;;
3052;SDS011;1536;51.098;6.414;2024-01-25T00:31:08;30.50;;;6.70;;
3052;SDS011;1536;51.098;6.414;2024-01-25T00:33:35;34.72;;;8.45;;
3052;SDS011;1536;51.098;6.414;2024-01-25T00:36:02;30.10;;;6.90;;
3052;SDS011;1536;51.098;6.414;2024-01-25T00:38:31;33.50;;;8.53;;
3052;SDS011;1536;51.098;6.414;2024-01-25T00:40:58;32.37;;;8.03;;
3052;SDS011;1536;51.098;6.414;2024-01-25T00:43:26;37.73;;;8.57;;
3052;SDS011;1536;51.098;6.414;2024-01-25T00:45:53;36.78;;;6.88;;
3052;SDS011;1536;51.098;6.414;2024-01-25T00:48:20;39.67;;;8.68;;
3052;SDS011;1536;51.098;6.414;2024-01-25T00:50:49;36.53;;;8.57;;
3052;SDS011;1536;51.098;6.414;2024-01-25T00:53:16;38.05;;;8.25;;
3052;SDS011;1536;51.098;6.414;2024-01-25T00:55:45;35.87;;;8.20;;
3052;SDS011;1536;51.098;6.414;2024-01-25T00:58:13;32.58;;;6.35;;
3052;SDS011;1536;51.098;6.414;2024-01-25T01:00:41;27.73;;;7.22;;
3052;SDS011;1536;51.098;6.414;2024-01-25T01:03:08;38.08;;;7.95;;
3052;SDS011;1536;51.098;6.414;2024-01-25T01:05:49;25.35;;;6.38;;
3052;SDS011;1536;51.098;6.414;2024-01-25T01:08:16;30.90;;;8.32;;
3052;SDS011;1536;51.098;6.414;2024-01-25T01:10:44;39.30;;;7.27;;
3052;SDS011;1536;51.098;6.414;2024-01-25T01:13:11;30.15;;;9.75;;
3052;SDS011;1536;51.098;6.414;2024-01-25T01:15:38;48.20;;;9.27;;
3052;SDS011;1536;51.098;6.414;2024-01-25T01:18:05;28.63;;;7.63;;
3052;SDS011;1536;51.098;6.414;2024-01-25T01:20:31;31.98;;;8.52;;
3052;SDS011;1536;51.098;6.414;2024-01-25T01:22:58;38.67;;;7.85;;
3052;SDS011;1536;51.098;6.414;2024-01-25T01:25:25;23.23;;;6.47;;
3052;SDS011;1536;51.098;6.414;2024-01-25T01:27:53;31.63;;;8.10;;
3052;SDS011;1536;51.098;6.414;2024-01-25T01:30:20;34.78;;;8.25;;
3052;SDS011;1536;51.098;6.414;2024-01-25T01:32:46;27.05;;;7.88;;
3052;SDS011;1536;51.098;6.414;2024-01-25T01:35:13;32.10;;;8.40;;
3052;SDS011;1536;51.098;6.414;2024-01-25T01:37:40;30.40;;;7.47;;
3052;SDS011;1536;51.098;6.414;2024-01-25T01:40:07;44.38;;;7.15;;
3052;SDS011;1536;51.098;6.414;2024-01-25T01:42:34;31.20;;;6.83;;
3052;SDS011;1536;51.098;6.414;2024-01-25T01:45:03;28.15;;;7.18;;
3052;SDS011;1536;51.098;6.414;2024-01-25T01:47:31;32.22;;;8.32;;
3052;SDS011;1536;51.098;6.414;2024-01-25T01:49:57;26.23;;;6.38;;
3052;SDS011;1536;51.098;6.414;2024-01-25T01:52:24;28.45;;;6.63;;
3052;SDS011;1536;51.098;6.414;2024-01-25T01:54:51;32.47;;;8.23;;
3052;SDS011;1536;51.098;6.414;2024-01-25T01:57:18;46.85;;;8.57;;
3052;SDS011;1536;51.098;6.414;2024-01-25T01:59:45;33.30;;;6.82;;
3052;SDS011;1536;51.098;6.414;2024-01-25T02:02:15;29.20;;;7.85;;
3052;SDS011;1536;51.098;6.414;2024-01-25T02:04:42;36.28;;;9.23;;
3052;SDS011;1536;51.098;6.414;2024-01-25T02:07:09;27.63;;;7.55;;
3052;SDS011;1536;51.098;6.414;2024-01-25T02:09:37;32.03;;;7.25;;
3052;SDS011;1536;51.098;6.414;2024-01-25T02:12:04;40.15;;;7.47;;
3052;SDS011;1536;51.098;6.414;2024-01-25T02:14:32;43.20;;;8.00;;
3052;SDS011;1536;51.098;6.414;2024-01-25T02:16:58;32.33;;;10.23;;
3052;SDS011;1536;51.098;6.414;2024-01-25T02:19:27;27.83;;;8.05;;
3052;SDS011;1536;51.098;6.414;2024-01-25T02:21:53;39.42;;;7.00;;
3052;SDS011;1536;51.098;6.414;2024-01-25T02:24:24;52.30;;;9.07;;
3052;SDS011;1536;51.098;6.414;2024-01-25T02:26:50;32.45;;;7.75;;
3052;SDS011;1536;51.098;6.414;2024-01-25T02:29:17;35.60;;;8.15;;
3052;SDS011;1536;51.098;6.414;2024-01-25T02:31:44;37.35;;;8.60;;
3052;SDS011;1536;51.098;6.414;2024-01-25T02:34:11;41.47;;;8.82;;
3052;SDS011;1536;51.098;6.414;2024-01-25T02:36:37;30.55;;;8.48;;
3052;SDS011;1536;51.098;6.414;2024-01-25T02:39:04;35.35;;;9.75;;
3052;SDS011;1536;51.098;6.414;2024-01-25T02:41:32;28.35;;;6.35;;
3052;SDS011;1536;51.098;6.414;2024-01-25T02:43:59;32.25;;;7.53;;
3052;SDS011;1536;51.098;6.414;2024-01-25T02:46:26;34.10;;;7.65;;
3052;SDS011;1536;51.098;6.414;2024-01-25T02:48:53;41.17;;;9.57;;
3052;SDS011;1536;51.098;6.414;2024-01-25T02:51:20;38.55;;;8.32;;
3052;SDS011;1536;51.098;6.414;2024-01-25T02:53:47;26.40;;;7.47;;
3052;SDS011;1536;51.098;6.414;2024-01-25T02:56:13;38.42;;;7.05;;
3052;SDS011;1536;51.098;6.414;2024-01-25T02:58:41;34.50;;;8.38;;
3052;SDS011;1536;51.098;6.414;2024-01-25T03:01:08;30.35;;;7.45;;
3052;SDS011;1536;51.098;6.414;2024-01-25T03:03:35;32.92;;;7.35;;
3052;SDS011;1536;51.098;6.414;2024-01-25T03:06:02;25.50;;;6.45;;
3052;SDS011;1536;51.098;6.414;2024-01-25T03:08:29;37.67;;;7.40;;
3052;SDS011;1536;51.098;6.414;2024-01-25T03:10:56;35.55;;;8.80;;
3052;SDS011;1536;51.098;6.414;2024-01-25T03:13:23;32.42;;;7.75;;
3052;SDS011;1536;51.098;6.414;2024-01-25T03:15:51;34.20;;;7.95;;
3052;SDS011;1536;51.098;6.414;2024-01-25T03:18:18;33.92;;;6.95;;
3052;SDS011;1536;51.098;6.414;2024-01-25T03:20:45;31.17;;;7.78;;
3052;SDS011;1536;51.098;6.414;2024-01-25T03:23:11;40.22;;;9.00;;
3052;SDS011;1536;51.098;6.414;2024-01-25T03:25:40;42.15;;;7.75;;
3052;SDS011;1536;51.098;6.414;2024-01-25T03:28:08;35.05;;;8.52;;
3052;SDS011;1536;51.098;6.414;2024-01-25T03:30:38;26.85;;;8.20;;
3052;SDS011;1536;51.098;6.414;2024-01-25T03:33:06;27.15;;;8.48;;
3052;SDS011;1536;51.098;6.414;2024-01-25T03:35:33;39.80;;;7.95;;
3052;SDS011;1536;51.098;6.414;2024-01-25T03:37:59;39.08;;;7.00;;
3052;SDS011;1536;51.098;6.414;2024-01-25T03:40:26;35.90;;;8.10;;
3052;SDS011;1536;51.098;6.414;2024-01-25T03:42:53;24.17;;;6.22;;
3052;SDS011;1536;51.098;6.414;2024-01-25T03:45:20;24.75;;;7.97;;
3052;SDS011;1536;51.098;6.414;2024-01-25T03:47:47;43.10;;;8.10;;
3052;SDS011;1536;51.098;6.414;2024-01-25T03:50:15;62.13;;;8.73;;
3052;SDS011;1536;51.098;6.414;2024-01-25T03:52:41;28.55;;;6.35;;
3052;SDS011;1536;51.098;6.414;2024-01-25T03:55:08;29.85;;;9.13;;
3052;SDS011;1536;51.098;6.414;2024-01-25T03:57:35;23.60;;;7.38;;
3052;SDS011;1536;51.098;6.414;2024-01-25T04:00:05;42.10;;;10.02;;
3052;SDS011;1536;51.098;6.414;2024-01-25T04:02:33;30.05;;;9.10;;
3052;SDS011;1536;51.098;6.414;2024-01-25T04:04:59;38.35;;;8.27;;
3052;SDS011;1536;51.098;6.414;2024-01-25T04:07:28;30.95;;;7.88;;
3052;SDS011;1536;51.098;6.414;2024-01-25T04:09:54;28.80;;;7.82;;
3052;SDS011;1536;51.098;6.414;2024-01-25T04:12:21;43.28;;;9.45;;
3052;SDS011;1536;51.098;6.414;2024-01-25T04:14:50;29.98;;;6.95;;
3052;SDS011;1536;51.098;6.414;2024-01-25T04:17:17;26.98;;;7.07;;
3052;SDS011;1536;51.098;6.414;2024-01-25T04:19:43;29.38;;;6.80;;
3052;SDS011;1536;51.098;6.414;2024-01-25T04:22:10;28.10;;;7.50;;
3052;SDS011;1536;51.098;6.414;2024-01-25T04:24:38;42.63;;;9.40;;
3052;SDS011;1536;51.098;6.414;2024-01-25T04:27:04;49.33;;;7.72;;
3052;SDS011;1536;51.098;6.414;2024-01-25T04:29:31;28.10;;;6.20;;
3052;SDS011;1536;51.098;6.414;2024-01-25T04:31:58;28.30;;;7.53;;
3052;SDS011;1536;51.098;6.414;2024-01-25T04:34:24;30.13;;;7.30;;
3052;SDS011;1536;51.098;6.414;2024-01-25T04:36:51;37.47;;;7.28;;
3052;SDS011;1536;51.098;6.414;2024-01-25T04:39:18;31.33;;;8.23;;
3052;SDS011;1536;51.098;6.414;2024-01-25T04:41:46;32.25;;;7.75;;
3052;SDS011;1536;51.098;6.414;2024-01-25T04:44:13;38.80;;;7.25;;
3052;SDS011;1536;51.098;6.414;2024-01-25T04:46:40;27.05;;;7.03;;
3052;SDS011;1536;51.098;6.414;2024-01-25T04:49:07;35.10;;;6.95;;
3052;SDS011;1536;51.098;6.414;2024-01-25T04:51:34;30.98;;;8.23;;
3052;SDS011;1536;51.098;6.414;2024-01-25T04:54:01;31.65;;;8.50;;
3052;SDS011;1536;51.098;6.414;2024-01-25T04:56:28;24.58;;;6.60;;
3052;SDS011;1536;51.098;6.414;2024-01-25T04:58:56;25.60;;;5.47;;
3052;SDS011;1536;51.098;6.414;2024-01-25T05:01:23;24.90;;;7.80;;
3052;SDS011;1536;51.098;6.414;2024-01-25T05:03:50;28.55;;;8.38;;
3052;SDS011;1536;51.098;6.414;2024-01-25T05:06:16;25.73;;;7.50;;
3052;SDS011;1536;51.098;6.414;2024-01-25T05:08:43;22.80;;;6.95;;
3052;SDS011;1536;51.098;6.414;2024-01-25T05:11:10;28.73;;;7.00;;
3052;SDS011;1536;51.098;6.414;2024-01-25T05:13:36;33.05;;;7.28;;
3052;SDS011;1536;51.098;6.414;2024-01-25T05:16:05;24.80;;;7.15;;
3052;SDS011;1536;51.098;6.414;2024-01-25T05:18:32;31.15;;;7.03;;
3052;SDS011;1536;51.098;6.414;2024-01-25T05:21:16;30.98;;;6.18;;
3052;SDS011;1536;51.098;6.414;2024-01-25T05:23:43;30.75;;;7.15;;
3052;SDS011;1536;51.098;6.414;2024-01-25T05:26:10;25.25;;;6.93;;
3052;SDS011;1536;51.098;6.414;2024-01-25T05:28:37;22.90;;;6.57;;
3052;SDS011;1536;51.098;6.414;2024-01-25T05:31:06;31.15;;;6.30;;
3052;SDS011;1536;51.098;6.414;2024-01-25T05:33:37;18.40;;;6.25;;
3052;SDS011;1536;51.098;6.414;2024-01-25T05:36:04;22.08;;;6.78;;
3052;SDS011;1536;51.098;6.414;2024-01-25T05:38:31;24.35;;;6.47;;
3052;SDS011;1536;51.098;6.414;2024-01-25T05:40:58;19.73;;;6.03;;
3052;SDS011;1536;51.098;6.414;2024-01-25T05:43:25;26.65;;;6.13;;
3052;SDS011;1536;51.098;6.414;2024-01-25T05:45:54;21.05;;;7.13;;
3052;SDS011;1536;51.098;6.414;2024-01-25T05:48:23;25.02;;;6.65;;
3052;SDS011;1536;51.098;6.414;2024-01-25T05:50:49;22.10;;;6.07;;
3052;SDS011;1536;51.098;6.414;2024-01-25T05:53:18;28.23;;;7.35;;
3052;SDS011;1536;51.098;6.414;2024-01-25T05:55:46;22.38;;;7.90;;
3052;SDS011;1536;51.098;6.414;2024-01-25T05:58:13;20.38;;;6.22;;
3052;SDS011;1536;51.098;6.414;2024-01-25T06:00:40;31.15;;;7.90;;
3052;SDS011;1536;51.098;6.414;2024-01-25T06:03:08;31.80;;;8.63;;
3052;SDS011;1536;51.098;6.414;2024-01-25T06:05:36;21.52;;;6.40;;
3052;SDS011;1536;51.098;6.414;2024-01-25T06:08:03;32.20;;;7.18;;
3052;SDS011;1536;51.098;6.414;2024-01-25T06:10:30;32.13;;;6.63;;
3052;SDS011;1536;51.098;6.414;2024-01-25T06:12:58;24.83;;;6.78;;
3052;SDS011;1536;51.098;6.414;2024-01-25T06:15:24;25.80;;;6.63;;
3052;SDS011;1536;51.098;6.414;2024-01-25T06:17:51;27.55;;;6.70;;
3052;SDS011;1536;51.098;6.414;2024-01-25T06:20:18;22.13;;;6.28;;
3052;SDS011;1536;51.098;6.414;2024-01-25T06:22:46;21.00;;;7.05;;
3052;SDS011;1536;51.098;6.414;2024-01-25T06:25:13;24.65;;;5.50;;
3052;SDS011;1536;51.098;6.414;2024-01-25T06:27:39;31.95;;;7.50;;
3052;SDS011;1536;51.098;6.414;2024-01-25T06:30:06;26.10;;;7.00;;
3052;SDS011;1536;51.098;6.414;2024-01-25T06:32:34;24.10;;;6.80;;
3052;SDS011;1536;51.098;6.414;2024-01-25T06:35:00;27.30;;;7.60;;
3052;SDS011;1536;51.098;6.414;2024-01-25T06:37:29;25.58;;;6.93;;
3052;SDS011;1536;51.098;6.414;2024-01-25T06:39:57;32.95;;;7.97;;
3052;SDS011;1536;51.098;6.414;2024-01-25T06:42:24;20.33;;;7.65;;
3052;SDS011;1536;51.098;6.414;2024-01-25T06:44:51;33.78;;;8.30;;
3052;SDS011;1536;51.098;6.414;2024-01-25T06:47:18;39.20;;;9.02;;
3052;SDS011;1536;51.098;6.414;2024-01-25T06:49:45;27.65;;;8.48;;
3052;SDS011;1536;51.098;6.414;2024-01-25T06:52:16;26.48;;;7.45;;
3052;SDS011;1536;51.098;6.414;2024-01-25T06:54:43;30.02;;;9.80;;
3052;SDS011;1536;51.098;6.414;2024-01-25T06:57:11;22.23;;;8.68;;
3052;SDS011;1536;51.098;6.414;2024-01-25T06:59:39;29.73;;;7.78;;
3052;SDS011;1536;51.098;6.414;2024-01-25T07:02:06;27.52;;;6.72;;
3052;SDS011;1536;51.098;6.414;2024-01-25T07:04:32;39.35;;;7.95;;
3052;SDS011;1536;51.098;6.414;2024-01-25T07:06:59;33.08;;;7.35;;
3052;SDS011;1536;51.098;6.414;2024-01-25T07:09:26;26.02;;;7.95;;
3052;SDS011;1536;51.098;6.414;2024-01-25T07:11:53;36.30;;;8.77;;
3052;SDS011;1536;51.098;6.414;2024-01-25T07:14:21;22.30;;;8.25;;
3052;SDS011;1536;51.098;6.414;2024-01-25T07:16:48;21.45;;;7.53;;
3052;SDS011;1536;51.098;6.414;2024-01-25T07:19:14;33.63;;;8.13;;
3052;SDS011;1536;51.098;6.414;2024-01-25T07:21:41;26.50;;;9.55;;
3052;SDS011;1536;51.098;6.414;2024-01-25T07:24:10;39.92;;;9.00;;
3052;SDS011;1536;51.098;6.414;2024-01-25T07:26:37;31.98;;;8.82;;
3052;SDS011;1536;51.098;6.414;2024-01-25T07:29:04;32.30;;;8.57;;
3052;SDS011;1536;51.098;6.414;2024-01-25T07:31:32;38.20;;;8.95;;
3052;SDS011;1536;51.098;6.414;2024-01-25T07:33:59;45.05;;;10.05;;
3052;SDS011;1536;51.098;6.414;2024-01-25T07:36:26;40.35;;;8.63;;
3052;SDS011;1536;51.098;6.414;2024-01-25T07:38:52;40.75;;;9.98;;
3052;SDS011;1536;51.098;6.414;2024-01-25T07:41:19;34.67;;;7.72;;
3052;SDS011;1536;51.098;6.414;2024-01-25T07:43:46;42.85;;;8.30;;
3052;SDS011;1536;51.098;6.414;2024-01-25T07:46:12;26.92;;;9.07;;
3052;SDS011;1536;51.098;6.414;2024-01-25T07:48:41;39.15;;;8.70;;
3052;SDS011;1536;51.098;6.414;2024-01-25T07:51:11;37.28;;;9.13;;
3052;SDS011;1536;51.098;6.414;2024-01-25T07:53:37;30.52;;;9.27;;
3052;SDS011;1536;51.098;6.414;2024-01-25T07:56:05;35.13;;;8.23;;
3052;SDS011;1536;51.098;6.414;2024-01-25T07:58:32;36.22;;;9.38;;
3052;SDS011;1536;51.098;6.414;2024-01-25T08:01:01;32.45;;;10.25;;
3052;SDS011;1536;51.098;6.414;2024-01-25T08:03:30;40.30;;;10.25;;
3052;SDS011;1536;51.098;6.414;2024-01-25T08:05:59;26.42;;;7.80;;
3052;SDS011;1536;51.098;6.414;2024-01-25T08:08:28;27.92;;;9.48;;
3052;SDS011;1536;51.098;6.414;2024-01-25T08:10:55;29.05;;;9.57;;
3052;SDS011;1536;51.098;6.414;2024-01-25T08:13:22;42.50;;;9.50;;
3052;SDS011;1536;51.098;6.414;2024-01-25T08:15:48;46.70;;;10.13;;
3052;SDS011;1536;51.098;6.414;2024-01-25T08:18:15;22.60;;;7.85;;
3052;SDS011;1536;51.098;6.414;2024-01-25T08:20:44;33.72;;;9.00;;
3052;SDS011;1536;51.098;6.414;2024-01-25T08:23:13;36.80;;;10.85;;
3052;SDS011;1536;51.098;6.414;2024-01-25T08:25:40;35.47;;;9.05;;
3052;SDS011;1536;51.098;6.414;2024-01-25T08:28:06;30.27;;;9.55;;
3052;SDS011;1536;51.098;6.414;2024-01-25T08:30:33;41.13;;;9.30;;
3052;SDS011;1536;51.098;6.414;2024-01-25T08:33:00;32.08;;;7.50;;
3052;SDS011;1536;51.098;6.414;2024-01-25T08:35:27;50.80;;;9.35;;
3052;SDS011;1536;51.098;6.414;2024-01-25T08:37:55;38.03;;;8.70;;
3052;SDS011;1536;51.098;6.414;2024-01-25T08:40:23;41.22;;;9.02;;
3052;SDS011;1536;51.098;6.414;2024-01-25T08:42:50;37.17;;;10.45;;
3052;SDS011;1536;51.098;6.414;2024-01-25T08:45:17;22.15;;;7.82;;
3052;SDS011;1536;51.098;6.414;2024-01-25T08:47:44;28.70;;;9.60;;
3052;SDS011;1536;51.098;6.414;2024-01-25T08:50:11;31.67;;;8.30;;
3052;SDS011;1536;51.098;6.414;2024-01-25T08:52:38;35.85;;;8.98;;
3052;SDS011;1536;51.098;6.414;2024-01-25T08:55:06;31.48;;;8.63;;
3052;SDS011;1536;51.098;6.414;2024-01-25T08:57:36;39.95;;;8.13;;
3052;SDS011;1536;51.098;6.414;2024-01-25T09:00:05;42.38;;;10.23;;
3052;SDS011;1536;51.098;6.414;2024-01-25T09:02:35;40.63;;;8.57;;
3052;SDS011;1536;51.098;6.414;2024-01-25T09:05:02;35.40;;;8.85;;
3052;SDS011;1536;51.098;6.414;2024-01-25T09:07:29;34.33;;;9.60;;
3052;SDS011;1536;51.098;6.414;2024-01-25T09:09:56;34.78;;;9.60;;
3052;SDS011;1536;51.098;6.414;2024-01-25T09:12:22;34.33;;;9.38;;
3052;SDS011;1536;51.098;6.414;2024-01-25T09:14:51;41.80;;;9.27;;
3052;SDS011;1536;51.098;6.414;2024-01-25T09:17:17;28.27;;;7.40;;
3052;SDS011;1536;51.098;6.414;2024-01-25T09:19:46;32.55;;;9.85;;
3052;SDS011;1536;51.098;6.414;2024-01-25T09:22:14;48.55;;;9.75;;
3052;SDS011;1536;51.098;6.414;2024-01-25T09:24:42;28.25;;;9.35;;
3052;SDS011;1536;51.098;6.414;2024-01-25T09:27:09;38.47;;;8.65;;
3052;SDS011;1536;51.098;6.414;2024-01-25T09:29:35;37.45;;;10.73;;
3052;SDS011;1536;51.098;6.414;2024-01-25T09:32:05;28.40;;;8.63;;
3052;SDS011;1536;51.098;6.414;2024-01-25T09:34:32;28.63;;;8.55;;
3052;SDS011;1536;51.098;6.414;2024-01-25T09:36:59;42.72;;;9.98;;
3052;SDS011;1536;51.098;6.414;2024-01-25T09:39:26;33.78;;;10.77;;
3052;SDS011;1536;51.098;6.414;2024-01-25T09:41:53;35.10;;;9.93;;
3052;SDS011;1536;51.098;6.414;2024-01-25T09:44:19;29.08;;;9.25;;
3052;SDS011;1536;51.098;6.414;2024-01-25T09:46:46;43.63;;;12.95;;
3052;SDS011;1536;51.098;6.414;2024-01-25T09:49:15;43.50;;;12.35;;
3052;SDS011;1536;51.098;6.414;2024-01-25T09:51:42;30.73;;;11.25;;
3052;SDS011;1536;51.098;6.414;2024-01-25T09:54:09;34.15;;;11.35;;
3052;SDS011;1536;51.098;6.414;2024-01-25T09:56:36;48.85;;;13.80;;
3052;SDS011;1536;51.098;6.414;2024-01-25T09:59:06;49.88;;;14.80;;
3052;SDS011;1536;51.098;6.414;2024-01-25T10:01:34;40.58;;;14.93;;
3052;SDS011;1536;51.098;6.414;2024-01-25T10:04:01;39.30;;;14.00;;
3052;SDS011;1536;51.098;6.414;2024-01-25T10:06:29;40.20;;;14.63;;
3052;SDS011;1536;51.098;6.414;2024-01-25T10:08:55;42.15;;;14.98;;
3052;SDS011;1536;51.098;6.414;2024-01-25T10:11:24;43.47;;;16.23;;
3052;SDS011;1536;51.098;6.414;2024-01-25T10:13:53;44.38;;;17.13;;
3052;SDS011;1536;51.098;6.414;2024-01-25T10:16:21;50.17;;;19.17;;
3052;SDS011;1536;51.098;6.414;2024-01-25T10:18:49;45.40;;;17.55;;
3052;SDS011;1536;51.098;6.414;2024-01-25T10:21:16;45.60;;;19.48;;
3052;SDS011;1536;51.098;6.414;2024-01-25T10:23:45;40.00;;;17.63;;
3052;SDS011;1536;51.098;6.414;2024-01-25T10:26:12;47.42;;;18.55;;
3052;SDS011;1536;51.098;6.414;2024-01-25T10:28:39;50.78;;;19.05;;
3052;SDS011;1536;51.098;6.414;2024-01-25T10:31:06;53.60;;;19.23;;
3052;SDS011;1536;51.098;6.414;2024-01-25T10:33:34;46.42;;;18.80;;
3052;SDS011;1536;51.098;6.414;2024-01-25T10:36:02;47.05;;;17.05;;
3052;SDS011;1536;51.098;6.414;2024-01-25T10:38:29;53.33;;;18.60;;
3052;SDS011;1536;51.098;6.414;2024-01-25T10:40:59;64.47;;;18.77;;
3052;SDS011;1536;51.098;6.414;2024-01-25T10:43:27;62.65;;;21.52;;
3052;SDS011;1536;51.098;6.414;2024-01-25T10:45:55;55.45;;;19.35;;
3052;SDS011;1536;51.098;6.414;2024-01-25T10:48:23;49.90;;;18.80;;
3052;SDS011;1536;51.098;6.414;2024-01-25T10:50:51;43.40;;;17.92;;
3052;SDS011;1536;51.098;6.414;2024-01-25T10:53:18;48.35;;;18.67;;
3052;SDS011;1536;51.098;6.414;2024-01-25T10:55:45;47.10;;;19.25;;
3052;SDS011;1536;51.098;6.414;2024-01-25T10:58:14;51.10;;;20.75;;
3052;SDS011;1536;51.098;6.414;2024-01-25T11:00:48;51.83;;;21.65;;
3052;SDS011;1536;51.098;6.414;2024-01-25T11:03:17;51.15;;;18.73;;
3052;SDS011;1536;51.098;6.414;2024-01-25T11:05:44;51.72;;;20.17;;
3052;SDS011;1536;51.098;6.414;2024-01-25T11:08:17;44.75;;;18.55;;
3052;SDS011;1536;51.098;6.414;2024-01-25T11:10:46;49.35;;;20.30;;
3052;SDS011;1536;51.098;6.414;2024-01-25T11:13:17;44.92;;;17.52;;
3052;SDS011;1536;51.098;6.414;2024-01-25T11:15:50;55.03;;;18.10;;
3052;SDS011;1536;51.098;6.414;2024-01-25T11:18:16;45.90;;;18.15;;
3052;SDS011;1536;51.098;6.414;2024-01-25T11:20:46;46.13;;;18.25;;
3052;SDS011;1536;51.098;6.414;2024-01-25T11:23:14;41.78;;;16.95;;
3052;SDS011;1536;51.098;6.414;2024-01-25T11:25:44;38.25;;;16.63;;
3052;SDS011;1536;51.098;6.414;2024-01-25T11:28:13;59.35;;;17.85;;
3052;SDS011;1536;51.098;6.414;2024-01-25T11:30:43;55.72;;;18.52;;
3052;SDS011;1536;51.098;6.414;2024-01-25T11:33:10;52.37;;;17.07;;
3052;SDS011;1536;51.098;6.414;2024-01-25T11:35:39;43.55;;;16.40;;
3052;SDS011;1536;51.098;6.414;2024-01-25T11:38:07;44.78;;;16.30;;
3052;SDS011;1536;51.098;6.414;2024-01-25T11:40:34;47.72;;;15.75;;
3052;SDS011;1536;51.098;6.414;2024-01-25T11:43:01;36.45;;;15.50;;
3052;SDS011;1536;51.098;6.414;2024-01-25T11:45:28;48.15;;;16.15;;
3052;SDS011;1536;51.098;6.414;2024-01-25T11:47:56;30.03;;;13.97;;
3052;SDS011;1536;51.098;6.414;2024-01-25T11:50:23;37.72;;;14.07;;
3052;SDS011;1536;51.098;6.414;2024-01-25T11:52:50;48.30;;;15.82;;
3052;SDS011;1536;51.098;6.414;2024-01-25T11:55:17;32.90;;;14.17;;
3052;SDS011;1536;51.098;6.414;2024-01-25T11:57:44;47.33;;;16.13;;
3052;SDS011;1536;51.098;6.414;2024-01-25T12:00:13;40.80;;;15.93;;
3052;SDS011;1536;51.098;6.414;2024-01-25T12:02:40;32.23;;;13.47;;
3052;SDS011;1536;51.098;6.414;2024-01-25T12:05:10;30.40;;;11.50;;
3052;SDS011;1536;51.098;6.414;2024-01-25T12:07:39;37.03;;;11.47;;
3052;SDS011;1536;51.098;6.414;2024-01-25T12:10:08;31.00;;;11.63;;
3052;SDS011;1536;51.098;6.414;2024-01-25T12:12:44;31.20;;;12.85;;
3052;SDS011;1536;51.098;6.414;2024-01-25T12:15:11;44.27;;;12.53;;
3052;SDS011;1536;51.098;6.414;2024-01-25T12:17:39;31.40;;;10.97;;
3052;SDS011;1536;51.098;6.414;2024-01-25T12:20:06;34.20;;;11.30;;
3052;SDS011;1536;51.098;6.414;2024-01-25T12:22:37;36.03;;;13.20;;
3052;SDS011;1536;51.098;6.414;2024-01-25T12:25:06;40.73;;;12.10;;
3052;SDS011;1536;51.098;6.414;2024-01-25T12:27:34;38.70;;;13.03;;
3052;SDS011;1536;51.098;6.414;2024-01-25T12:30:02;26.07;;;10.33;;
3052;SDS011;1536;51.098;6.414;2024-01-25T12:32:30;32.73;;;11.47;;
3052;SDS011;1536;51.098;6.414;2024-01-25T12:34:57;34.33;;;13.27;;
3052;SDS011;1536;51.098;6.414;2024-01-25T12:37:26;35.67;;;12.40;;
3052;SDS011;1536;51.098;6.414;2024-01-25T12:39:55;34.57;;;11.77;;
3052;SDS011;1536;51.098;6.414;2024-01-25T12:42:21;43.10;;;12.60;;
3052;SDS011;1536;51.098;6.414;2024-01-25T12:44:52;31.07;;;10.73;;
3052;SDS011;1536;51.098;6.414;2024-01-25T12:47:19;32.10;;;11.17;;
3052;SDS011;1536;51.098;6.414;2024-01-25T12:49:46;33.10;;;9.90;;
3052;SDS011;1536;51.098;6.414;2024-01-25T12:52:14;32.63;;;11.90;;
3052;SDS011;1536;51.098;6.414;2024-01-25T12:54:43;32.33;;;10.30;;
3052;SDS011;1536;51.098;6.414;2024-01-25T12:57:11;36.30;;;10.93;;
3052;SDS011;1536;51.098;6.414;2024-01-25T12:59:38;27.93;;;10.73;;
3052;SDS011;1536;51.098;6.414;2024-01-25T13:02:05;31.10;;;11.40;;
3052;SDS011;1536;51.098;6.414;2024-01-25T13:04:33;43.37;;;10.27;;
3052;SDS011;1536;51.098;6.414;2024-01-25T13:07:00;32.20;;;11.17;;
3052;SDS011;1536;51.098;6.414;2024-01-25T13:09:27;32.57;;;9.80;;
3052;SDS011;1536;51.098;6.414;2024-01-25T13:11:54;29.50;;;11.03;;
3052;SDS011;1536;51.098;6.414;2024-01-25T13:14:22;33.67;;;9.03;;
3052;SDS011;1536;51.098;6.414;2024-01-25T13:16:49;35.40;;;10.60;;
3052;SDS011;1536;51.098;6.414;2024-01-25T13:19:16;38.77;;;11.30;;
3052;SDS011;1536;51.098;6.414;2024-01-25T13:21:43;26.70;;;8.77;;
3052;SDS011;1536;51.098;6.414;2024-01-25T13:24:09;33.90;;;10.40;;
3052;SDS011;1536;51.098;6.414;2024-01-25T13:26:36;35.00;;;8.40;;
3052;SDS011;1536;51.098;6.414;2024-01-25T13:29:03;27.37;;;9.50;;
3052;SDS011;1536;51.098;6.414;2024-01-25T13:31:31;36.60;;;8.60;;
3052;SDS011;1536;51.098;6.414;2024-01-25T13:33:58;31.80;;;8.40;;
3052;SDS011;1536;51.098;6.414;2024-01-25T13:36:24;27.47;;;8.07;;
3052;SDS011;1536;51.098;6.414;2024-01-25T13:38:52;26.90;;;8.20;;
3052;SDS011;1536;51.098;6.414;2024-01-25T13:41:19;21.10;;;8.40;;
3052;SDS011;1536;51.098;6.414;2024-01-25T13:43:46;29.40;;;8.07;;
3052;SDS011;1536;51.098;6.414;2024-01-25T13:46:12;19.50;;;7.80;;
3052;SDS011;1536;51.098;6.414;2024-01-25T13:48:41;31.47;;;8.60;;
3052;SDS011;1536;51.098;6.414;2024-01-25T13:51:07;25.27;;;7.33;;
3052;SDS011;1536;51.098;6.414;2024-01-25T13:53:34;27.77;;;8.23;;
3052;SDS011;1536;51.098;6.414;2024-01-25T13:56:01;30.80;;;9.47;;
3052;SDS011;1536;51.098;6.414;2024-01-25T13:58:28;29.40;;;8.03;;
3052;SDS011;1536;51.098;6.414;2024-01-25T14:00:55;23.67;;;7.03;;
3052;SDS011;1536;51.098;6.414;2024-01-25T14:03:22;28.43;;;7.30;;
3052;SDS011;1536;51.098;6.414;2024-01-25T14:05:50;25.30;;;7.17;;
3052;SDS011;1536;51.098;6.414;2024-01-25T14:08:17;25.40;;;7.70;;
3052;SDS011;1536;51.098;6.414;2024-01-25T14:10:43;28.97;;;8.00;;
3052;SDS011;1536;51.098;6.414;2024-01-25T14:13:10;32.03;;;8.70;;
3052;SDS011;1536;51.098;6.414;2024-01-25T14:15:37;30.77;;;8.60;;
3052;SDS011;1536;51.098;6.414;2024-01-25T14:18:04;27.30;;;7.73;;
3052;SDS011;1536;51.098;6.414;2024-01-25T14:20:31;35.90;;;8.03;;
3052;SDS011;1536;51.098;6.414;2024-01-25T14:22:59;20.17;;;7.87;;
3052;SDS011;1536;51.098;6.414;2024-01-25T14:25:25;32.73;;;8.40;;
3052;SDS011;1536;51.098;6.414;2024-01-25T14:27:52;20.60;;;7.67;;
3052;SDS011;1536;51.098;6.414;2024-01-25T14:30:19;24.00;;;7.87;;
3052;SDS011;1536;51.098;6.414;2024-01-25T14:32:45;24.97;;;6.63;;
3052;SDS011;1536;51.098;6.414;2024-01-25T14:35:12;27.53;;;7.53;;
3052;SDS011;1536;51.098;6.414;2024-01-25T14:37:39;34.77;;;7.17;;
3052;SDS011;1536;51.098;6.414;2024-01-25T14:40:08;18.30;;;6.23;;
3052;SDS011;1536;51.098;6.414;2024-01-25T14:42:36;22.40;;;6.20;;
3052;SDS011;1536;51.098;6.414;2024-01-25T14:45:04;24.83;;;7.87;;
3052;SDS011;1536;51.098;6.414;2024-01-25T14:47:31;26.87;;;8.47;;
3052;SDS011;1536;51.098;6.414;2024-01-25T14:49:58;25.37;;;8.00;;
3052;SDS011;1536;51.098;6.414;2024-01-25T14:52:25;26.00;;;8.67;;
3052;SDS011;1536;51.098;6.414;2024-01-25T14:54:52;23.87;;;7.43;;
3052;SDS011;1536;51.098;6.414;2024-01-25T14:57:21;27.87;;;7.77;;
3052;SDS011;1536;51.098;6.414;2024-01-25T14:59:48;36.23;;;8.00;;